Date,TemperatureHighF,TemperatureAvgF,TemperatureLowF,DewpointHighF,DewpointAvgF,DewpointLowF,HumidityHigh,HumidityAvg,HumidityLow,PressureMaxIn,PressureMinIn,WindSpeedMaxMPH,WindSpeedAvgMPH,GustSpeedMaxMPH,PrecipitationSumIn
2013-1-1,35,27,11,27,16,3,81,64,44,29.85,29.60,10,4,20,0.04
2013-1-2,27,14,5,12,3,-5,74,61,41,30.03,29.82,9,3,21,0.01
2013-1-3,25,11,0,7,0,-7,77,63,41,30.07,29.93,5,1,10,0.00
2013-1-4,35,26,12,26,18,4,89,73,65,29.93,29.72,11,4,23,0.00
2013-1-5,38,31,18,26,19,12,81,63,39,30.24,29.73,9,3,20,0.03
2013-1-6,39,28,17,28,22,12,88,79,62,30.20,29.88,6,1,14,0.07
2013-1-7,32,26,17,27,21,13,90,80,61,30.37,29.90,6,1,10,0.03
2013-1-8,41,32,17,30,24,13,93,75,52,30.33,30.17,13,4,22,0.08
2013-1-9,42,31,18,36,26,16,91,82,69,30.38,29.88,9,2,20,0.22
2013-1-10,45,39,29,34,27,23,88,65,49,30.49,29.90,10,4,25,0.36
2013-1-11,40,33,23,37,26,19,90,77,63,30.51,30.22,5,1,10,0.02
2013-1-12,44,41,39,41,39,37,95,92,87,30.22,30.09,4,1,11,0.02
2013-1-13,46,42,38,45,41,36,97,95,92,30.12,29.93,6,2,12,0.01
2013-1-14,59,46,38,51,40,27,97,81,52,30.19,29.81,6,3,17,0.00
2013-1-15,39,35,31,31,27,24,86,71,56,30.29,30.18,3,0,8,0.00
2013-1-16,36,32,30,33,29,23,94,87,66,30.24,29.76,5,1,10,0.49
2013-1-17,40,32,20,35,23,3,93,73,37,30.09,29.75,6,2,16,0.04
2013-1-18,22,18,12,8,-1,-8,58,44,30,30.39,30.06,7,3,14,0.00
2013-1-19,42,34,20,32,22,8,73,60,51,30.35,29.85,12,6,27,0.00
2013-1-20,49,40,27,37,27,7,81,61,34,29.84,29.42,15,8,28,0.00
2013-1-21,29,24,18,15,5,0,71,45,31,30.02,29.81,10,4,22,0.00
2013-1-22,24,18,11,17,8,-4,75,64,46,30.02,29.72,5,2,15,0.00
2013-1-23,11,6,1,-3,-11,-15,58,46,31,30.08,30.01,9,3,20,0.00
2013-1-24,20,7,-3,-5,-9,-13,62,47,29,30.12,29.93,8,3,18,0.00
2013-1-25,24,14,1,5,-1,-7,73,52,36,30.20,30.03,5,1,11,0.00
2013-1-26,25,18,12,5,-1,-6,56,44,27,30.13,29.96,6,2,14,0.00
2013-1-27,30,18,7,6,2,-4,71,49,32,30.41,30.13,6,1,14,0.00
2013-1-28,29,21,11,22,11,-4,90,66,38,30.41,30.04,2,0,8,0.09
2013-1-29,35,29,23,31,25,20,90,84,73,30.18,30.04,3,1,7,0.07
2013-1-30,49,43,34,48,42,31,97,95,88,30.12,29.43,10,4,21,0.15
2013-1-31,51,42,31,50,28,12,97,60,42,29.45,28.84,15,10,34,0.19
2013-2-1,32,27,18,18,10,4,64,48,33,30.02,29.45,11,5,23,0.01
2013-2-2,28,22,14,16,9,3,75,56,44,30.18,30.02,5,1,15,0.00
2013-2-3,29,26,23,19,16,14,81,67,57,30.02,29.67,6,2,12,0.00
2013-2-4,31,25,19,16,8,-2,78,49,28,29.85,29.64,11,5,24,0.00
2013-2-5,26,20,13,15,5,-3,72,52,37,30.01,29.85,5,1,11,0.00
2013-2-6,38,28,21,26,16,-3,80,63,34,30.25,29.90,7,2,18,0.00
2013-2-7,25,19,13,6,-1,-5,54,41,29,30.53,30.25,6,2,13,0.00
2013-2-8,19,16,13,17,13,3,91,86,52,30.52,29.81,12,6,27,0.45
2013-2-9,21,16,12,18,13,10,90,87,74,30.08,29.61,15,9,34,0.16
2013-2-10,33,23,10,30,18,3,95,81,60,30.33,30.08,5,2,14,0.15
2013-2-11,40,26,12,39,24,9,96,91,86,30.32,29.57,7,1,17,0.50
2013-2-12,47,38,32,35,31,28,95,78,55,29.76,29.51,9,3,19,0.02
2013-2-13,45,36,28,30,26,23,84,69,48,29.80,29.70,5,1,10,0.00
2013-2-14,43,36,27,29,24,20,90,64,42,29.96,29.68,7,2,16,0.00
2013-2-15,45,34,22,38,30,20,95,87,74,29.97,29.87,8,2,17,0.00
2013-2-16,38,34,30,34,29,15,95,84,54,29.91,29.74,6,2,14,0.01
2013-2-17,29,23,20,19,12,4,89,65,44,29.74,29.18,12,7,29,0.04
2013-2-18,35,24,15,10,4,-2,60,42,26,30.04,29.46,13,5,26,0.01
2013-2-19,44,33,20,43,19,-2,95,58,29,30.08,29.53,7,3,18,0.37
2013-2-20,44,35,28,43,27,17,95,74,60,29.64,29.42,10,5,21,0.40
2013-2-21,31,28,24,21,16,11,71,62,47,30.11,29.64,7,4,18,0.00
2013-2-22,39,32,26,25,22,20,80,69,51,30.34,30.11,5,1,11,0.00
2013-2-23,38,35,30,34,30,24,93,84,78,30.33,29.98,7,2,15,0.04
2013-2-24,36,32,29,34,31,27,95,94,91,29.98,29.74,7,2,16,0.56
2013-2-25,43,34,27,33,29,24,94,85,63,30.22,29.87,5,1,11,0.14
2013-2-26,43,37,33,32,31,29,92,78,57,30.34,30.21,5,1,9,0.02
2013-2-27,40,37,33,36,33,30,95,88,74,30.21,29.61,12,7,27,0.97
2013-2-28,42,37,34,41,35,32,97,93,88,29.61,29.50,9,2,17,0.82
2013-3-1,38,35,33,33,31,29,92,85,75,29.65,29.51,6,2,12,0.01
2013-3-2,46,37,32,33,31,29,93,82,55,29.63,29.57,7,2,13,0.06
2013-3-3,43,37,32,36,32,28,93,81,67,29.59,29.51,4,2,10,0.07
2013-3-4,39,34,32,30,27,24,85,74,64,29.66,29.48,6,4,15,0.01
2013-3-5,45,39,33,35,32,25,89,75,66,30.08,29.66,7,4,15,0.00
2013-3-6,39,36,33,34,31,28,92,81,71,30.20,30.08,11,6,22,0.00
2013-3-7,36,34,31,30,27,26,89,77,67,30.16,30.04,11,7,23,0.00
2013-3-8,46,37,29,29,26,23,94,68,42,30.16,29.98,10,6,21,0.16
2013-3-9,44,36,26,32,27,24,93,70,51,30.35,30.15,8,3,20,0.01
2013-3-10,40,33,25,33,29,22,93,83,71,30.41,30.28,6,2,10,0.00
2013-3-11,43,39,36,40,36,33,93,88,80,30.30,30.13,8,5,17,0.00
2013-3-12,47,44,40,46,42,38,96,94,91,30.15,29.71,12,4,24,0.44
2013-3-13,50,43,33,45,39,29,97,84,65,29.72,29.65,8,2,18,0.41
2013-3-14,42,33,23,29,23,9,89,68,43,29.73,29.59,8,3,15,0.00
2013-3-15,38,28,17,24,13,6,82,55,32,29.79,29.57,6,2,17,0.00
2013-3-16,36,31,25,26,17,12,85,56,42,29.87,29.60,7,2,14,0.00
2013-3-17,36,28,20,17,9,1,83,48,26,30.30,29.87,9,3,22,0.00
2013-3-18,34,27,13,23,10,0,74,50,27,30.42,30.26,6,2,14,0.00
2013-3-19,34,30,24,30,27,22,95,89,61,30.26,29.63,12,6,30,0.60
2013-3-20,37,30,20,30,23,17,93,79,60,29.72,29.61,11,4,22,0.31
2013-3-21,40,32,22,28,21,16,85,66,45,29.75,29.58,7,2,16,0.02
2013-3-22,40,32,24,26,21,17,87,64,43,29.64,29.57,6,1,13,0.00
2013-3-23,43,33,25,25,22,17,80,64,43,29.65,29.50,12,5,26,0.00
2013-3-24,47,38,24,27,24,20,87,61,41,29.76,29.65,7,2,15,0.00
2013-3-25,42,36,27,36,30,23,88,78,68,29.75,29.55,7,3,14,0.00
2013-3-26,52,41,33,28,25,22,74,54,33,29.71,29.54,7,3,17,0.00
2013-3-27,52,40,29,37,29,22,93,69,40,29.84,29.70,7,2,16,0.12
2013-3-28,49,42,36,36,33,30,93,73,47,29.96,29.84,5,2,12,0.13
2013-3-29,57,45,34,38,32,29,85,64,40,30.00,29.92,8,1,15,0.01
2013-3-30,54,41,31,36,32,27,90,70,37,30.06,29.97,6,1,15,0.01
2013-3-31,49,40,25,40,30,-100,90,73,34,30.09,29.82,9,3,19,0.00
2013-4-1,54,44,35,44,38,18,95,83,46,29.82,29.47,10,4,18,0.48
2013-4-2,41,34,28,19,14,10,60,44,29,29.83,29.68,13,6,27,0.03
2013-4-3,47,37,29,18,13,7,60,40,19,30.04,29.81,12,6,26,0.01
2013-4-4,53,40,27,36,21,10,83,51,19,30.20,29.96,11,4,21,0.00
2013-4-5,50,44,38,38,32,24,81,64,37,29.96,29.62,9,5,17,0.00
2013-4-6,43,35,27,27,11,3,74,40,20,30.32,29.80,9,4,25,0.00
2013-4-7,45,40,26,40,30,14,86,70,58,30.32,29.94,11,5,25,0.00
2013-4-8,61,49,39,42,38,36,92,70,40,30.10,29.88,7,3,16,0.00
2013-4-9,53,45,40,46,41,36,95,87,72,30.10,29.86,5,2,10,0.08
2013-4-10,51,45,42,47,43,40,96,92,84,29.97,29.87,6,1,11,0.42
2013-4-11,48,44,42,44,37,22,96,76,41,30.15,29.84,9,2,13,0.23
2013-4-12,42,37,35,35,28,19,94,71,45,30.23,29.85,10,5,17,0.23
2013-4-13,47,39,34,39,36,32,94,88,72,29.90,29.77,7,3,15,0.08
2013-4-14,55,45,40,40,38,32,94,77,56,30.15,29.87,6,2,14,0.01
2013-4-15,51,42,31,40,36,28,94,80,56,30.39,30.16,8,2,15,0.01
2013-4-16,49,45,40,45,41,38,95,86,75,30.39,29.96,11,6,29,0.00
2013-4-17,65,55,45,51,35,26,95,51,27,30.31,29.95,6,3,16,0.00
2013-4-18,48,44,32,41,35,27,84,72,50,30.46,30.16,9,3,18,0.00
2013-4-19,58,51,46,54,49,41,97,92,83,30.16,29.62,11,6,22,0.00
2013-4-20,57,52,44,54,39,24,97,67,37,30.13,29.56,11,6,21,0.17
2013-4-21,53,42,31,32,25,21,86,53,28,30.67,30.13,6,2,15,0.01
2013-4-22,46,41,31,37,32,24,88,70,59,30.80,30.63,8,3,16,0.00
2013-4-23,42,40,37,41,36,30,95,86,70,30.63,30.16,8,4,16,0.02
2013-4-24,61,48,42,51,45,41,95,88,70,30.18,29.76,7,4,16,0.05
2013-4-25,65,53,45,50,41,31,95,67,29,30.25,29.76,11,4,23,0.02
2013-4-26,52,46,38,39,35,29,91,66,51,30.44,30.25,6,2,12,0.02
2013-4-27,55,45,33,44,39,31,96,81,56,30.40,30.29,5,2,11,0.00
2013-4-28,57,48,35,45,39,-100,95,76,51,30.33,30.24,7,2,13,0.00
2013-4-29,58,49,39,49,43,37,96,82,65,30.26,30.20,7,2,14,0.00
2013-4-30,62,50,37,47,41,35,96,75,43,30.37,30.23,7,2,15,0.00
2013-5-1,61,48,34,45,40,32,95,74,49,30.46,30.36,7,2,14,0.00
2013-5-2,60,49,41,48,43,37,95,80,56,30.50,30.38,8,2,16,0.00
2013-5-3,55,48,42,45,42,38,87,78,64,30.54,30.37,7,2,12,0.00
2013-5-4,53,46,37,44,40,35,96,81,65,30.38,30.32,7,2,13,0.00
2013-5-5,54,45,31,45,39,29,96,81,58,30.34,30.25,9,3,18,0.00
2013-5-6,55,46,35,49,43,33,97,90,75,30.27,30.16,7,3,14,0.00
2013-5-7,61,52,45,53,49,44,97,90,73,30.17,30.09,9,2,17,0.01
2013-5-8,65,57,51,59,54,50,97,91,79,30.23,30.09,5,2,12,0.01
2013-5-9,57,52,51,56,51,50,97,96,91,30.09,29.88,6,2,12,0.49
2013-5-10,60,53,49,57,50,-100,98,95,87,29.94,29.88,6,2,11,0.02
2013-5-11,60,55,51,57,54,50,97,95,89,29.91,29.67,9,4,20,0.10
2013-5-12,65,57,50,60,51,-100,98,85,51,29.71,29.52,9,2,20,0.05
2013-5-13,60,51,43,35,32,29,66,50,35,29.99,29.72,11,5,21,0.01
2013-5-14,59,48,40,44,36,27,87,65,31,30.01,29.93,7,2,14,0.00
2013-5-15,58,49,36,49,40,27,94,75,32,30.01,29.65,10,4,26,0.17
2013-5-16,80,57,45,55,25,-100,97,60,20,29.76,29.54,12,4,26,0.17
2013-5-17,68,56,46,46,36,-100,84,57,33,30.19,29.76,8,2,21,0.00
2013-5-18,55,49,40,48,44,38,95,83,65,30.31,30.19,8,2,18,0.00
2013-5-19,56,51,48,50,48,46,96,89,79,30.36,30.23,6,2,12,0.06
2013-5-20,67,57,50,62,55,49,98,93,81,30.22,29.91,5,2,9,0.30
2013-5-21,58,50,48,56,49,47,96,95,93,30.08,29.94,5,2,12,0.14
2013-5-22,54,50,49,52,49,48,97,95,90,30.07,29.87,3,1,12,0.48
2013-5-23,60,54,48,58,52,47,97,95,91,29.93,29.79,7,2,16,0.10
2013-5-24,60,57,50,59,56,48,98,97,94,29.80,29.62,8,4,24,1.00
2013-5-25,52,49,46,50,47,45,97,94,88,29.80,29.61,9,5,18,0.51
2013-5-26,57,50,45,46,43,40,97,79,57,29.98,29.56,6,3,19,0.10
2013-5-27,70,56,41,43,38,32,88,58,26,30.14,29.98,6,2,18,0.01
2013-5-28,69,54,40,50,44,38,94,71,34,30.23,30.14,6,2,14,0.00
2013-5-29,56,53,50,55,52,49,97,96,93,30.17,29.98,4,1,11,0.13
2013-5-30,87,69,54,67,61,53,98,78,42,30.00,29.93,5,1,12,0.02
2013-5-31,85,71,58,69,63,56,95,76,54,30.03,29.87,6,1,14,0.00
2013-6-1,82,72,64,69,64,61,93,77,61,29.90,29.78,6,2,20,0.00
2013-6-2,74,68,62,67,61,-100,94,85,74,29.80,29.67,8,3,20,0.21
2013-6-3,70,63,58,66,61,55,96,91,81,29.80,29.69,7,3,17,0.25
2013-6-4,67,59,49,55,47,43,95,67,43,30.04,29.75,4,1,17,0.03
2013-6-5,67,57,47,52,47,41,90,70,44,30.15,30.04,6,2,17,0.00
2013-6-6,64,58,55,57,52,48,92,79,57,30.19,30.12,5,1,14,0.00
2013-6-7,57,55,52,54,52,49,95,89,79,30.13,29.92,6,2,11,0.56
2013-6-8,72,59,53,62,56,52,96,89,68,29.95,29.61,7,3,16,1.00
2013-6-9,71,64,57,62,59,55,95,84,71,30.12,29.95,4,1,9,0.07
2013-6-10,64,59,53,57,55,51,95,87,77,30.20,30.03,3,1,10,0.04
2013-6-11,57,55,53,56,54,52,96,95,92,30.04,29.54,7,2,17,0.66
2013-6-12,63,58,55,58,56,53,96,91,80,29.75,29.50,7,2,19,0.26
2013-6-13,67,58,50,56,53,48,96,85,61,29.78,29.71,5,1,12,0.09
2013-6-14,69,60,54,60,56,53,96,86,66,29.72,29.65,5,1,10,0.05
2013-6-15,77,62,50,58,51,44,95,70,34,29.88,29.71,5,1,16,0.05
2013-6-16,70,61,51,59,54,48,92,80,64,29.88,29.68,5,1,12,0.01
2013-6-17,81,67,59,64,60,55,91,80,47,29.85,29.70,8,2,18,0.00
2013-6-18,65,61,57,60,57,54,96,89,71,29.97,29.83,3,0,10,0.11
2013-6-19,73,62,52,57,52,49,96,73,48,30.12,29.90,4,1,11,0.09
2013-6-20,71,60,48,57,50,46,95,74,47,30.23,30.12,5,1,11,0.00
2013-6-22,74,70,65,66,63,62,89,80,72,30.16,30.07,4,1,10,0.00
2013-6-23,75,68,62,68,64,60,95,88,76,30.11,29.94,7,2,19,1.05
2013-6-24,92,74,65,74,68,64,97,83,52,29.96,29.80,5,2,14,0.03
2013-6-25,85,75,68,73,68,64,95,80,63,29.84,29.67,11,2,35,0.58
2013-6-26,78,66,57,72,64,56,97,93,78,29.87,29.67,4,1,11,0.72
2013-6-27,60,57,55,58,56,54,97,95,91,29.87,29.80,3,1,10,0.30
2013-6-28,66,60,55,65,59,54,98,97,96,29.81,29.50,6,2,13,0.76
2013-6-29,69,64,61,66,63,60,98,95,87,29.67,29.51,7,3,18,0.02
2013-6-30,75,67,62,71,64,61,97,91,82,29.91,29.67,6,2,15,0.01
2013-7-1,74,66,63,70,65,62,97,95,86,30.07,29.90,3,1,11,1.11
2013-7-2,66,61,56,65,60,55,98,97,96,30.20,30.06,4,1,10,0.84
2013-7-3,71,63,57,66,61,56,98,93,84,30.19,30.07,4,1,9,0.03
2013-7-4,84,74,63,76,70,62,98,86,74,30.14,30.02,6,1,13,0.00
2013-7-5,88,78,72,75,72,69,95,83,65,30.09,29.96,6,1,14,0.00
2013-7-6,90,81,73,75,72,68,93,75,55,30.00,29.90,5,2,13,0.00
2013-7-7,90,77,67,72,68,64,90,74,47,29.96,29.88,5,1,14,0.02
2013-7-8,73,69,64,71,66,59,96,90,72,30.06,29.88,4,1,12,0.56
2013-7-9,67,63,61,64,61,60,96,94,83,30.10,30.05,3,1,8,0.10
2013-7-10,67,61,60,66,58,-100,98,94,94,30.08,29.76,2,0,6,0.06
2013-7-11,76,70,66,74,69,65,98,96,89,29.91,29.72,2,0,5,0.02
2013-7-12,75,68,62,67,61,58,92,78,61,30.18,29.92,5,2,11,0.01
2013-7-13,78,68,59,65,62,57,97,82,60,30.30,30.19,3,1,9,0.00
2013-7-14,85,74,65,73,68,64,97,82,59,30.27,30.16,4,1,9,0.00
2013-7-15,90,76,68,73,69,67,96,81,51,30.16,30.04,5,1,12,0.00
2013-7-16,88,77,69,76,69,65,89,78,58,30.13,30.06,4,1,8,0.05
2013-7-17,80,73,69,72,69,67,95,86,75,30.15,29.92,7,2,16,0.25
2013-7-18,82,74,69,74,70,68,97,89,69,29.98,29.90,5,1,12,0.25
2013-7-19,94,79,69,76,72,67,96,81,55,29.92,29.62,8,3,16,0.00
2013-7-20,87,80,73,75,70,67,85,73,60,29.74,29.59,6,2,14,0.00
2013-7-21,74,69,61,68,62,55,94,79,55,29.99,29.74,6,1,12,0.00
2013-7-22,72,66,64,66,64,62,97,93,81,30.02,29.91,2,0,8,0.02
2013-7-23,69,65,62,67,64,61,97,95,93,29.89,29.52,3,1,8,0.44
2013-7-24,83,72,61,74,67,52,98,86,65,29.94,29.55,4,1,11,0.01
2013-7-25,69,61,57,60,54,50,95,78,66,30.09,29.94,5,1,10,0.12
2013-7-26,70,66,62,66,62,60,95,89,82,30.06,29.87,5,2,13,0.22
2013-7-27,79,70,61,69,65,60,96,83,65,30.00,29.91,5,2,10,0.02
2013-7-28,66,64,62,64,63,61,97,95,92,30.02,29.98,4,1,8,0.04
2013-7-29,71,64,61,67,63,60,98,95,84,30.03,29.97,5,1,10,0.09
2013-7-30,77,67,60,67,63,59,98,88,70,30.05,29.98,4,0,10,0.02
2013-7-31,76,67,56,65,60,55,96,81,60,30.09,30.01,4,1,14,0.00
2013-8-1,74,66,59,68,63,57,97,90,81,30.03,29.86,5,2,14,0.00
2013-8-2,74,67,63,69,65,62,97,92,82,29.85,29.73,5,2,10,0.44
2013-8-3,82,69,60,66,61,57,96,77,46,29.81,29.71,10,2,18,0.02
2013-8-4,77,65,56,64,59,54,95,82,55,29.82,29.72,4,0,11,0.08
2013-8-5,76,62,51,60,53,48,96,74,45,30.01,29.82,5,1,14,0.06
2013-8-6,75,62,50,60,53,46,90,74,49,30.13,30.01,5,1,12,0.00
2013-8-7,73,63,52,65,59,50,97,86,68,30.17,30.09,6,2,12,0.00
2013-8-8,73,67,63,69,64,60,95,89,83,30.10,29.97,6,3,15,0.29
2013-8-9,70,67,65,69,66,64,97,96,94,29.99,29.70,8,3,26,0.57
2013-8-10,83,72,60,68,59,51,98,68,36,29.97,29.72,7,2,18,0.24
2013-8-11,74,63,51,61,56,49,95,78,53,30.03,29.96,4,1,13,0.00
2013-8-12,77,64,56,64,58,54,95,82,55,29.98,29.88,5,1,11,0.00
2013-8-13,70,64,59,66,60,-100,97,90,80,29.88,29.66,6,1,15,0.00
2013-8-14,78,66,58,65,56,-100,98,76,43,29.87,29.60,8,2,16,0.00
2013-8-15,77,60,53,58,42,-100,91,69,42,30.06,29.87,6,1,13,0.00
2013-8-16,72,62,53,61,53,-100,96,80,62,30.14,30.05,5,1,11,0.00
2013-8-17,76,65,54,63,58,53,96,80,58,30.24,30.14,4,1,12,0.00
2013-8-18,75,64,54,63,57,-100,96,82,57,30.25,30.03,4,1,11,0.00
2013-8-19,84,67,56,67,52,-100,97,77,51,30.03,29.87,5,1,12,0.00
2013-8-20,83,69,61,68,61,-100,95,79,58,30.04,29.92,3,1,9,0.00
2013-8-21,79,69,60,68,64,59,97,83,62,30.10,29.96,5,1,14,0.00
2013-8-22,85,72,63,70,65,60,94,81,60,29.96,29.75,8,2,16,0.00
2013-8-23,80,72,64,68,57,49,93,62,35,30.11,29.75,5,2,13,0.00
2013-8-24,75,64,51,53,50,48,90,64,40,30.28,30.11,5,1,9,0.00
2013-8-25,75,62,50,61,53,-100,96,77,49,30.33,30.12,6,1,11,0.00
2013-8-26,80,68,62,68,63,57,95,85,67,30.12,29.83,6,2,14,0.20
2013-8-27,82,71,63,68,65,62,97,84,58,29.86,29.81,5,1,9,0.05
2013-8-28,74,68,63,68,64,62,96,90,79,29.98,29.86,3,1,8,0.01
2013-8-29,69,65,62,64,62,58,97,90,77,30.07,29.95,4,1,11,0.01
2013-8-30,77,67,58,67,62,56,95,86,70,30.01,29.75,5,2,11,0.01